sensor_id;sensor_type;location;lat;lon;timestamp;pressure;altitude;pressure_sealevel;temperature;humidity
25947;BME280;13745;51.470;9.894;2024-01-27T00:00:27;100815.19;;;5.46;79.72
25947;BME280;13745;51.470;9.894;2024-01-27T00:03:13;100827.97;;;5.45;79.73
25947;BME280;13745;51.470;9.894;2024-01-27T00:05:57;100817.63;;;5.42;79.79
25947;BME280;13745;51.470;9.894;2024-01-27T00:08:43;100827.03;;;5.41;79.49
25947;BME280;13745;51.470;9.894;2024-01-27T00:11:27;100828.69;;;5.39;79.25
25947;BME280;13745;51.470;9.894;2024-01-27T00:14:14;100830.31;;;5.37;79.41
25947;BME280;13745;51.470;9.894;2024-01-27T00:16:59;100836.28;;;5.36;79.72
25947;BME280;13745;51.470;9.894;2024-01-27T00:19:44;100839.69;;;5.35;79.53
25947;BME280;13745;51.470;9.894;2024-01-27T00:22:30;100837.00;;;5.30;79.13
25947;BME280;13745;51.470;9.894;2024-01-27T00:25:15;100843.75;;;5.28;79.77
25947;BME280;13745;51.470;9.894;2024-01-27T00:28:01;100839.38;;;5.24;79.28
25947;BME280;13745;51.470;9.894;2024-01-27T00:30:47;100843.59;;;5.22;79.76
25947;BME280;13745;51.470;9.894;2024-01-27T00:33:33;100851.91;;;5.15;79.45
25947;BME280;13745;51.470;9.894;2024-01-27T00:36:19;100853.63;;;5.15;79.48
25947;BME280;13745;51.470;9.894;2024-01-27T00:39:04;100845.88;;;5.13;79.30
25947;BME280;13745;51.470;9.894;2024-01-27T00:41:49;100846.66;;;5.12;79.80
25947;BME280;13745;51.470;9.894;2024-01-27T00:44:36;100845.78;;;5.12;79.49
25947;BME280;13745;51.470;9.894;2024-01-27T00:47:22;100844.88;;;5.10;79.89
25947;BME280;13745;51.470;9.894;2024-01-27T00:50:08;100849.09;;;5.07;79.88
25947;BME280;13745;51.470;9.894;2024-01-27T00:52:53;100855.97;;;5.08;79.48
25947;BME280;13745;51.470;9.894;2024-01-27T00:55:38;100851.72;;;5.09;79.90
25947;BME280;13745;51.470;9.894;2024-01-27T00:58:23;100852.53;;;5.08;79.89
25947;BME280;13745;51.470;9.894;2024-01-27T01:01:08;100855.81;;;5.04;79.45
25947;BME280;13745;51.470;9.894;2024-01-27T01:03:54;100857.50;;;5.03;79.96
25947;BME280;13745;51.470;9.894;2024-01-27T01:06:40;100854.84;;;5.00;80.15
25947;BME280;13745;51.470;9.894;2024-01-27T01:09:25;100860.78;;;4.98;79.91
25947;BME280;13745;51.470;9.894;2024-01-27T01:12:10;100858.09;;;4.95;80.08
25947;BME280;13745;51.470;9.894;2024-01-27T01:14:56;100870.06;;;4.94;80.26
25947;BME280;13745;51.470;9.894;2024-01-27T01:17:41;100877.69;;;4.91;80.20
25947;BME280;13745;51.470;9.894;2024-01-27T01:20:27;100877.72;;;4.93;80.25
25947;BME280;13745;51.470;9.894;2024-01-27T01:23:14;100884.50;;;4.91;80.19
25947;BME280;13745;51.470;9.894;2024-01-27T01:25:59;100888.03;;;4.94;80.29
25947;BME280;13745;51.470;9.894;2024-01-27T01:28:43;100893.09;;;4.91;79.70
25947;BME280;13745;51.470;9.894;2024-01-27T01:31:28;100904.25;;;4.92;80.14
25947;BME280;13745;51.470;9.894;2024-01-27T01:34:14;100903.38;;;4.91;80.11
25947;BME280;13745;51.470;9.894;2024-01-27T01:37:00;100897.31;;;4.89;80.20
25947;BME280;13745;51.470;9.894;2024-01-27T01:39:46;100897.41;;;4.92;79.86
25947;BME280;13745;51.470;9.894;2024-01-27T01:42:32;100903.47;;;4.94;80.00
25947;BME280;13745;51.470;9.894;2024-01-27T01:45:17;100906.16;;;4.97;79.93
25947;BME280;13745;51.470;9.894;2024-01-27T01:48:04;100906.25;;;5.00;79.92
25947;BME280;13745;51.470;9.894;2024-01-27T01:50:50;100915.78;;;5.04;79.92
25947;BME280;13745;51.470;9.894;2024-01-27T01:53:37;100919.31;;;5.06;80.25
25947;BME280;13745;51.470;9.894;2024-01-27T01:56:22;100912.50;;;5.08;79.82
25947;BME280;13745;51.470;9.894;2024-01-27T01:59:08;100928.91;;;5.12;80.25
25947;BME280;13745;51.470;9.894;2024-01-27T02:01:53;100931.47;;;5.12;79.94
25947;BME280;13745;51.470;9.894;2024-01-27T02:04:41;100926.41;;;5.14;79.82
25947;BME280;13745;51.470;9.894;2024-01-27T02:07:26;100921.31;;;5.15;79.89
25947;BME280;13745;51.470;9.894;2024-01-27T02:10:17;100935.03;;;5.16;79.64
25947;BME280;13745;51.470;9.894;2024-01-27T02:13:02;100940.19;;;5.16;80.40
25947;BME280;13745;51.470;9.894;2024-01-27T02:15:49;100944.41;;;5.14;79.79
25947;BME280;13745;51.470;9.894;2024-01-27T02:18:34;100941.91;;;5.17;80.08
25947;BME280;13745;51.470;9.894;2024-01-27T02:21:20;100936.03;;;5.21;79.88
25947;BME280;13745;51.470;9.894;2024-01-27T02:24:08;100942.13;;;5.23;79.99
25947;BME280;13745;51.470;9.894;2024-01-27T02:26:53;100940.47;;;5.25;79.88
25947;BME280;13745;51.470;9.894;2024-01-27T02:29:38;100947.44;;;5.29;79.96
25947;BME280;13745;51.470;9.894;2024-01-27T02:32:23;100941.50;;;5.30;79.80
25947;BME280;13745;51.470;9.894;2024-01-27T02:35:08;100933.84;;;5.31;79.75
25947;BME280;13745;51.470;9.894;2024-01-27T02:37:53;100931.38;;;5.34;80.29
25947;BME280;13745;51.470;9.894;2024-01-27T02:40:39;100932.34;;;5.38;79.69
25947;BME280;13745;51.470;9.894;2024-01-27T02:43:25;100928.00;;;5.37;79.97
25947;BME280;13745;51.470;9.894;2024-01-27T02:46:11;100928.97;;;5.39;80.14
25947;BME280;13745;51.470;9.894;2024-01-27T02:48:59;100929.00;;;5.41;80.23
25947;BME280;13745;51.470;9.894;2024-01-27T02:51:44;100928.13;;;5.40;80.25
25947;BME280;13745;51.470;9.894;2024-01-27T02:54:29;100935.84;;;5.40;79.92
25947;BME280;13745;51.470;9.894;2024-01-27T02:57:16;100935.84;;;5.40;80.10
25947;BME280;13745;51.470;9.894;2024-01-27T03:00:04;100933.31;;;5.42;79.78
25947;BME280;13745;51.470;9.894;2024-01-27T03:02:50;100937.69;;;5.44;79.76
25947;BME280;13745;51.470;9.894;2024-01-27T03:05:34;100931.66;;;5.44;79.80
25947;BME280;13745;51.470;9.894;2024-01-27T03:08:19;100933.41;;;5.45;79.78
25947;BME280;13745;51.470;9.894;2024-01-27T03:11:05;100933.41;;;5.45;79.76
25947;BME280;13745;51.470;9.894;2024-01-27T03:13:51;100934.28;;;5.45;80.38
25947;BME280;13745;51.470;9.894;2024-01-27T03:16:37;100932.50;;;5.43;79.92
25947;BME280;13745;51.470;9.894;2024-01-27T03:19:21;100938.50;;;5.43;79.84
25947;BME280;13745;51.470;9.894;2024-01-27T03:22:07;100935.94;;;5.43;80.06
25947;BME280;13745;51.470;9.894;2024-01-27T03:24:52;100929.88;;;5.41;80.39
25947;BME280;13745;51.470;9.894;2024-01-27T03:27:39;100920.47;;;5.42;80.44
25947;BME280;13745;51.470;9.894;2024-01-27T03:30:25;100941.81;;;5.39;80.08
25947;BME280;13745;51.470;9.894;2024-01-27T03:33:11;100935.03;;;5.41;80.01
25947;BME280;13745;51.470;9.894;2024-01-27T03:35:56;100941.75;;;5.38;80.18
25947;BME280;13745;51.470;9.894;2024-01-27T03:38:41;100937.38;;;5.35;80.15
25947;BME280;13745;51.470;9.894;2024-01-27T03:41:26;100937.28;;;5.32;80.54
25947;BME280;13745;51.470;9.894;2024-01-27T03:44:11;100943.09;;;5.26;80.53
25947;BME280;13745;51.470;9.894;2024-01-27T03:46:58;100943.00;;;5.23;80.54
25947;BME280;13745;51.470;9.894;2024-01-27T03:49:43;100936.03;;;5.21;80.47
25947;BME280;13745;51.470;9.894;2024-01-27T03:52:28;100945.41;;;5.19;80.40
25947;BME280;13745;51.470;9.894;2024-01-27T03:55:14;100947.06;;;5.17;80.94
25947;BME280;13745;51.470;9.894;2024-01-27T03:57:59;100951.28;;;5.15;80.62
25947;BME280;13745;51.470;9.894;2024-01-27T04:00:44;100957.16;;;5.12;80.72
25947;BME280;13745;51.470;9.894;2024-01-27T04:03:30;100948.44;;;5.07;81.16
25947;BME280;13745;51.470;9.894;2024-01-27T04:06:16;100955.16;;;5.03;80.72
25947;BME280;13745;51.470;9.894;2024-01-27T04:09:01;100964.50;;;5.01;81.27
25947;BME280;13745;51.470;9.894;2024-01-27T04:11:47;100971.34;;;5.01;80.85
25947;BME280;13745;51.470;9.894;2024-01-27T04:14:31;100967.88;;;4.99;81.03
25947;BME280;13745;51.470;9.894;2024-01-27T04:17:17;100977.22;;;4.97;81.32
25947;BME280;13745;51.470;9.894;2024-01-27T04:20:04;100987.59;;;5.00;80.97
25947;BME280;13745;51.470;9.894;2024-01-27T04:22:50;100985.16;;;5.04;80.99
25947;BME280;13745;51.470;9.894;2024-01-27T04:25:35;100991.31;;;5.08;80.93
25947;BME280;13745;51.470;9.894;2024-01-27T04:28:20;101004.19;;;5.10;81.29
25947;BME280;13745;51.470;9.894;2024-01-27T04:31:05;101000.84;;;5.12;81.35
25947;BME280;13745;51.470;9.894;2024-01-27T04:33:50;100999.34;;;5.17;80.96
25947;BME280;13745;51.470;9.894;2024-01-27T04:36:36;101006.34;;;5.21;80.74
25947;BME280;13745;51.470;9.894;2024-01-27T04:39:22;101003.00;;;5.24;80.60
25947;BME280;13745;51.470;9.894;2024-01-27T04:42:07;101004.84;;;5.28;80.62
25947;BME280;13745;51.470;9.894;2024-01-27T04:44:52;101009.16;;;5.29;80.64
25947;BME280;13745;51.470;9.894;2024-01-27T04:47:37;101004.84;;;5.28;80.90
25947;BME280;13745;51.470;9.894;2024-01-27T04:50:22;101017.69;;;5.28;80.47
25947;BME280;13745;51.470;9.894;2024-01-27T04:53:09;101011.56;;;5.24;80.51
25947;BME280;13745;51.470;9.894;2024-01-27T04:55:54;101019.19;;;5.21;81.17
25947;BME280;13745;51.470;9.894;2024-01-27T04:58:39;101018.28;;;5.21;81.18
25947;BME280;13745;51.470;9.894;2024-01-27T05:01:24;101022.56;;;5.20;80.63
25947;BME280;13745;51.470;9.894;2024-01-27T05:04:09;101024.06;;;5.14;81.15
25947;BME280;13745;51.470;9.894;2024-01-27T05:06:55;101026.50;;;5.11;80.79
25947;BME280;13745;51.470;9.894;2024-01-27T05:09:42;101027.97;;;5.04;81.19
25947;BME280;13745;51.470;9.894;2024-01-27T05:12:27;101038.22;;;5.02;80.89
25947;BME280;13745;51.470;9.894;2024-01-27T05:15:12;101048.44;;;5.01;81.50
25947;BME280;13745;51.470;9.894;2024-01-27T05:17:57;101044.91;;;4.97;81.03
25947;BME280;13745;51.470;9.894;2024-01-27T05:20:42;101047.38;;;4.96;81.21
25947;BME280;13745;51.470;9.894;2024-01-27T05:23:27;101054.22;;;4.95;81.41
25947;BME280;13745;51.470;9.894;2024-01-27T05:26:13;101053.34;;;4.95;81.48
25947;BME280;13745;51.470;9.894;2024-01-27T05:28:59;101062.88;;;4.97;81.33
25947;BME280;13745;51.470;9.894;2024-01-27T05:31:44;101054.22;;;4.95;80.94
25947;BME280;13745;51.470;9.894;2024-01-27T05:34:29;101060.13;;;4.93;81.05
25947;BME280;13745;51.470;9.894;2024-01-27T05:37:14;101073.69;;;4.89;81.59
25947;BME280;13745;51.470;9.894;2024-01-27T05:39:58;101075.16;;;4.82;81.46
25947;BME280;13745;51.470;9.894;2024-01-27T05:42:45;101074.97;;;4.77;81.55
25947;BME280;13745;51.470;9.894;2024-01-27T05:45:30;101080.81;;;4.73;81.72
25947;BME280;13745;51.470;9.894;2024-01-27T05:48:15;101092.78;;;4.73;81.54
25947;BME280;13745;51.470;9.894;2024-01-27T05:51:01;101092.78;;;4.73;81.31
25947;BME280;13745;51.470;9.894;2024-01-27T05:53:46;101095.41;;;4.74;81.20
25947;BME280;13745;51.470;9.894;2024-01-27T05:56:31;101100.59;;;4.76;81.73
25947;BME280;13745;51.470;9.894;2024-01-27T05:59:17;101103.28;;;4.79;81.35
25947;BME280;13745;51.470;9.894;2024-01-27T06:02:03;101104.16;;;4.79;81.37
25947;BME280;13745;51.470;9.894;2024-01-27T06:04:49;101099.00;;;4.79;81.35
25947;BME280;13745;51.470;9.894;2024-01-27T06:07:34;101090.34;;;4.76;81.15
25947;BME280;13745;51.470;9.894;2024-01-27T06:10:19;101095.38;;;4.73;81.29
25947;BME280;13745;51.470;9.894;2024-01-27T06:13:04;101096.81;;;4.66;81.56
25947;BME280;13745;51.470;9.894;2024-01-27T06:15:51;101103.44;;;4.61;81.79
25947;BME280;13745;51.470;9.894;2024-01-27T06:18:36;101094.53;;;4.51;81.84
25947;BME280;13745;51.470;9.894;2024-01-27T06:21:21;101102.06;;;4.47;81.67
25947;BME280;13745;51.470;9.894;2024-01-27T06:24:06;101107.00;;;4.42;81.83
25947;BME280;13745;51.470;9.894;2024-01-27T06:26:52;101112.72;;;4.35;81.92
25947;BME280;13745;51.470;9.894;2024-01-27T06:29:37;101107.28;;;4.28;81.85
25947;BME280;13745;51.470;9.894;2024-01-27T06:32:23;101106.16;;;4.21;81.96
25947;BME280;13745;51.470;9.894;2024-01-27T06:35:08;101112.81;;;4.16;82.34
25947;BME280;13745;51.470;9.894;2024-01-27T06:37:54;101107.41;;;4.10;82.06
25947;BME280;13745;51.470;9.894;2024-01-27T06:40:39;101099.59;;;4.07;82.34
25947;BME280;13745;51.470;9.894;2024-01-27T06:43:23;101103.66;;;4.02;82.42
25947;BME280;13745;51.470;9.894;2024-01-27T06:46:08;101111.25;;;3.99;82.37
25947;BME280;13745;51.470;9.894;2024-01-27T06:48:55;101116.22;;;3.95;82.29
25947;BME280;13745;51.470;9.894;2024-01-27T06:51:40;101124.72;;;3.94;82.35
25947;BME280;13745;51.470;9.894;2024-01-27T06:54:25;101127.25;;;3.93;82.52
25947;BME280;13745;51.470;9.894;2024-01-27T06:57:17;101121.91;;;3.88;82.68
25947;BME280;13745;51.470;9.894;2024-01-27T07:00:04;101133.78;;;3.86;82.79
25947;BME280;13745;51.470;9.894;2024-01-27T07:02:49;101137.13;;;3.84;82.68
25947;BME280;13745;51.470;9.894;2024-01-27T07:05:36;101144.69;;;3.81;82.61
25947;BME280;13745;51.470;9.894;2024-01-27T07:08:24;101135.09;;;3.77;82.73
25947;BME280;13745;51.470;9.894;2024-01-27T07:11:09;101141.97;;;3.78;82.42
25947;BME280;13745;51.470;9.894;2024-01-27T07:13:54;101138.53;;;3.77;82.68
25947;BME280;13745;51.470;9.894;2024-01-27T07:16:39;101145.31;;;3.75;82.83
25947;BME280;13745;51.470;9.894;2024-01-27T07:19:24;101146.19;;;3.76;82.64
25947;BME280;13745;51.470;9.894;2024-01-27T07:22:10;101154.03;;;3.80;82.62
25947;BME280;13745;51.470;9.894;2024-01-27T07:24:55;101156.81;;;3.85;82.82
25947;BME280;13745;51.470;9.894;2024-01-27T07:27:40;101153.72;;;3.92;82.79
25947;BME280;13745;51.470;9.894;2024-01-27T07:30:25;101159.09;;;3.98;82.57
25947;BME280;13745;51.470;9.894;2024-01-27T07:33:11;101157.66;;;4.05;82.13
25947;BME280;13745;51.470;9.894;2024-01-27T07:35:56;101156.16;;;4.10;82.11
25947;BME280;13745;51.470;9.894;2024-01-27T07:38:45;101162.44;;;4.16;82.35
25947;BME280;13745;51.470;9.894;2024-01-27T07:41:31;101153.22;;;4.21;82.18
25947;BME280;13745;51.470;9.894;2024-01-27T07:44:18;101160.19;;;4.24;81.65
25947;BME280;13745;51.470;9.894;2024-01-27T07:47:03;101158.53;;;4.26;81.79
25947;BME280;13745;51.470;9.894;2024-01-27T07:49:48;101161.31;;;4.31;82.04
25947;BME280;13745;51.470;9.894;2024-01-27T07:52:33;101166.63;;;4.35;82.36
25947;BME280;13745;51.470;9.894;2024-01-27T07:55:20;101166.81;;;4.40;81.54
25947;BME280;13745;51.470;9.894;2024-01-27T07:58:05;101166.94;;;4.43;81.70
25947;BME280;13745;51.470;9.894;2024-01-27T08:00:50;101171.13;;;4.41;81.21
25947;BME280;13745;51.470;9.894;2024-01-27T08:03:35;101195.16;;;4.43;81.27
25947;BME280;13745;51.470;9.894;2024-01-27T08:06:27;101186.03;;;4.49;81.63
25947;BME280;13745;51.470;9.894;2024-01-27T08:09:12;101196.59;;;4.57;80.93
25947;BME280;13745;51.470;9.894;2024-01-27T08:11:59;101200.31;;;4.64;81.24
25947;BME280;13745;51.470;9.894;2024-01-27T08:14:44;101198.78;;;4.69;81.21
25947;BME280;13745;51.470;9.894;2024-01-27T08:17:29;101204.09;;;4.73;80.62
25947;BME280;13745;51.470;9.894;2024-01-27T08:20:14;101201.84;;;4.81;80.47
25947;BME280;13745;51.470;9.894;2024-01-27T08:22:59;101190.91;;;4.87;80.27
25947;BME280;13745;51.470;9.894;2024-01-27T08:25:44;101183.44;;;4.93;80.63
25947;BME280;13745;51.470;9.894;2024-01-27T08:28:32;101191.22;;;4.94;79.86
25947;BME280;13745;51.470;9.894;2024-01-27T08:31:17;101189.31;;;4.89;80.17
25947;BME280;13745;51.470;9.894;2024-01-27T08:34:02;101205.66;;;4.91;80.43
25947;BME280;13745;51.470;9.894;2024-01-27T08:36:47;101204.19;;;4.97;80.24
25947;BME280;13745;51.470;9.894;2024-01-27T08:39:32;101207.06;;;5.05;80.17
25947;BME280;13745;51.470;9.894;2024-01-27T08:42:17;101204.66;;;5.10;79.32
25947;BME280;13745;51.470;9.894;2024-01-27T08:45:04;101203.88;;;5.12;79.66
25947;BME280;13745;51.470;9.894;2024-01-27T08:47:50;101205.00;;;5.19;79.85
25947;BME280;13745;51.470;9.894;2024-01-27T08:50:35;101200.78;;;5.21;79.31
25947;BME280;13745;51.470;9.894;2024-01-27T08:53:20;101207.75;;;5.23;79.19
25947;BME280;13745;51.470;9.894;2024-01-27T08:56:05;101217.63;;;5.35;78.89
25947;BME280;13745;51.470;9.894;2024-01-27T08:58:50;101211.94;;;5.44;79.21
25947;BME280;13745;51.470;9.894;2024-01-27T09:01:38;101217.47;;;5.54;79.08
25947;BME280;13745;51.470;9.894;2024-01-27T09:04:23;101210.53;;;5.76;78.22
25947;BME280;13745;51.470;9.894;2024-01-27T09:07:08;101209.97;;;6.32;77.21
25947;BME280;13745;51.470;9.894;2024-01-27T09:09:53;101204.97;;;7.19;76.03
25947;BME280;13745;51.470;9.894;2024-01-27T09:12:39;101199.59;;;8.69;73.13
25947;BME280;13745;51.470;9.894;2024-01-27T09:15:24;101184.22;;;11.05;69.08
25947;BME280;13745;51.470;9.894;2024-01-27T09:18:10;101188.00;;;13.15;64.78
25947;BME280;13745;51.470;9.894;2024-01-27T09:20:56;101193.63;;;14.62;61.40
25947;BME280;13745;51.470;9.894;2024-01-27T09:23:41;101196.94;;;15.46;60.18
25947;BME280;13745;51.470;9.894;2024-01-27T09:26:26;101192.69;;;16.68;58.14
25947;BME280;13745;51.470;9.894;2024-01-27T09:29:11;101198.22;;;18.53;54.57
25947;BME280;13745;51.470;9.894;2024-01-27T09:31:56;101187.75;;;20.63;50.87
25947;BME280;13745;51.470;9.894;2024-01-27T09:34:43;101191.06;;;22.75;47.82
25947;BME280;13745;51.470;9.894;2024-01-27T09:37:28;101192.09;;;25.19;43.79
25947;BME280;13745;51.470;9.894;2024-01-27T09:40:14;101187.97;;;26.96;40.59
25947;BME280;13745;51.470;9.894;2024-01-27T09:42:59;101183.31;;;27.83;39.50
25947;BME280;13745;51.470;9.894;2024-01-27T09:45:45;101188.63;;;27.83;39.44
25947;BME280;13745;51.470;9.894;2024-01-27T09:48:30;101176.28;;;28.12;39.42
25947;BME280;13745;51.470;9.894;2024-01-27T09:51:18;101187.03;;;29.31;37.28
25947;BME280;13745;51.470;9.894;2024-01-27T09:54:04;101188.91;;;31.05;35.29
25947;BME280;13745;51.470;9.894;2024-01-27T09:56:50;101183.59;;;31.67;34.86
25947;BME280;13745;51.470;9.894;2024-01-27T09:59:36;101183.94;;;32.23;34.70
25947;BME280;13745;51.470;9.894;2024-01-27T10:02:24;101175.19;;;33.03;33.15
25947;BME280;13745;51.470;9.894;2024-01-27T10:05:09;101174.84;;;34.39;32.10
25947;BME280;13745;51.470;9.894;2024-01-27T10:07:55;101176.53;;;36.13;30.55
25947;BME280;13745;51.470;9.894;2024-01-27T10:10:41;101178.00;;;37.12;29.18
25947;BME280;13745;51.470;9.894;2024-01-27T10:13:25;101189.03;;;37.29;28.40
25947;BME280;13745;51.470;9.894;2024-01-27T10:16:11;101178.50;;;37.35;28.16
25947;BME280;13745;51.470;9.894;2024-01-27T10:19:00;101171.63;;;37.68;28.14
25947;BME280;13745;51.470;9.894;2024-01-27T10:21:46;101178.44;;;38.80;27.30
25947;BME280;13745;51.470;9.894;2024-01-27T10:24:32;101175.25;;;39.44;26.95
25947;BME280;13745;51.470;9.894;2024-01-27T10:27:19;101179.50;;;39.55;26.39
25947;BME280;13745;51.470;9.894;2024-01-27T10:30:05;101179.31;;;39.40;25.98
25947;BME280;13745;51.470;9.894;2024-01-27T10:32:55;101167.41;;;39.83;26.30
25947;BME280;13745;51.470;9.894;2024-01-27T10:35:41;101172.28;;;39.64;26.11
25947;BME280;13745;51.470;9.894;2024-01-27T10:38:33;101171.81;;;39.76;25.39
25947;BME280;13745;51.470;9.894;2024-01-27T10:41:22;101176.66;;;40.15;25.71
25947;BME280;13745;51.470;9.894;2024-01-27T10:44:10;101171.91;;;40.58;24.86
25947;BME280;13745;51.470;9.894;2024-01-27T10:47:01;101174.63;;;40.66;24.81
25947;BME280;13745;51.470;9.894;2024-01-27T10:49:47;101178.97;;;41.08;25.07
25947;BME280;13745;51.470;9.894;2024-01-27T10:52:37;101179.31;;;41.52;23.81
25947;BME280;13745;51.470;9.894;2024-01-27T10:55:22;101187.34;;;42.07;23.85
25947;BME280;13745;51.470;9.894;2024-01-27T10:58:10;101177.44;;;42.15;23.84
25947;BME280;13745;51.470;9.894;2024-01-27T11:00:58;101176.28;;;41.47;24.21
25947;BME280;13745;51.470;9.894;2024-01-27T11:03:44;101174.47;;;40.59;23.75
25947;BME280;13745;51.470;9.894;2024-01-27T11:06:31;101173.94;;;40.80;24.25
25947;BME280;13745;51.470;9.894;2024-01-27T11:09:18;101170.19;;;41.29;23.99
25947;BME280;13745;51.470;9.894;2024-01-27T11:12:05;101173.91;;;41.44;23.13
25947;BME280;13745;51.470;9.894;2024-01-27T11:14:53;101168.50;;;41.28;22.96
25947;BME280;13745;51.470;9.894;2024-01-27T11:17:39;101166.66;;;41.20;23.82
25947;BME280;13745;51.470;9.894;2024-01-27T11:20:24;101177.63;;;41.51;23.32
25947;BME280;13745;51.470;9.894;2024-01-27T11:23:10;101184.94;;;41.50;23.48
25947;BME280;13745;51.470;9.894;2024-01-27T11:26:02;101169.34;;;41.36;22.65
25947;BME280;13745;51.470;9.894;2024-01-27T11:28:48;101165.28;;;41.24;23.51
25947;BME280;13745;51.470;9.894;2024-01-27T11:31:34;101167.59;;;41.83;22.46
25947;BME280;13745;51.470;9.894;2024-01-27T11:34:20;101173.06;;;42.28;22.18
25947;BME280;13745;51.470;9.894;2024-01-27T11:37:10;101176.78;;;42.73;22.16
25947;BME280;13745;51.470;9.894;2024-01-27T11:40:04;101171.97;;;42.90;22.31
25947;BME280;13745;51.470;9.894;2024-01-27T11:42:54;101169.91;;;42.62;22.20
25947;BME280;13745;51.470;9.894;2024-01-27T11:45:39;101170.78;;;42.17;22.51
25947;BME280;13745;51.470;9.894;2024-01-27T11:48:26;101160.75;;;41.87;21.83
25947;BME280;13745;51.470;9.894;2024-01-27T11:51:12;101157.13;;;41.71;22.02
25947;BME280;13745;51.470;9.894;2024-01-27T11:53:57;101149.97;;;41.62;22.67
25947;BME280;13745;51.470;9.894;2024-01-27T11:56:42;101148.25;;;40.66;22.82
25947;BME280;13745;51.470;9.894;2024-01-27T11:59:27;101146.59;;;40.17;23.13
25947;BME280;13745;51.470;9.894;2024-01-27T12:02:12;101153.50;;;39.36;23.18
25947;BME280;13745;51.470;9.894;2024-01-27T12:04:59;101144.16;;;38.53;23.72
25947;BME280;13745;51.470;9.894;2024-01-27T12:07:44;101141.66;;;38.15;23.14
25947;BME280;13745;51.470;9.894;2024-01-27T12:10:30;101153.94;;;37.64;23.55
25947;BME280;13745;51.470;9.894;2024-01-27T12:13:15;101150.00;;;37.41;23.65
25947;BME280;13745;51.470;9.894;2024-01-27T12:16:00;101149.81;;;36.59;23.83
25947;BME280;13745;51.470;9.894;2024-01-27T12:18:46;101151.28;;;34.73;24.73
25947;BME280;13745;51.470;9.894;2024-01-27T12:21:33;101163.00;;;32.75;25.58
25947;BME280;13745;51.470;9.894;2024-01-27T12:24:18;101176.25;;;31.95;26.65
25947;BME280;13745;51.470;9.894;2024-01-27T12:27:04;101164.19;;;32.24;26.39
25947;BME280;13745;51.470;9.894;2024-01-27T12:29:49;101158.03;;;32.81;25.76
25947;BME280;13745;51.470;9.894;2024-01-27T12:32:35;101164.56;;;33.12;26.18
25947;BME280;13745;51.470;9.894;2024-01-27T12:35:20;101158.81;;;33.06;25.82
25947;BME280;13745;51.470;9.894;2024-01-27T12:38:06;101163.69;;;33.01;25.57
25947;BME280;13745;51.470;9.894;2024-01-27T12:40:51;101164.06;;;32.50;26.03
25947;BME280;13745;51.470;9.894;2024-01-27T12:43:36;101164.91;;;32.26;26.01
25947;BME280;13745;51.470;9.894;2024-01-27T12:46:21;101168.84;;;31.49;26.99
25947;BME280;13745;51.470;9.894;2024-01-27T12:49:07;101167.47;;;31.05;26.76
25947;BME280;13745;51.470;9.894;2024-01-27T12:51:53;101166.19;;;30.98;27.42
25947;BME280;13745;51.470;9.894;2024-01-27T12:54:39;101167.56;;;30.65;27.57
25947;BME280;13745;51.470;9.894;2024-01-27T12:57:24;101164.63;;;29.89;27.93
25947;BME280;13745;51.470;9.894;2024-01-27T13:00:10;101175.16;;;29.35;27.95
25947;BME280;13745;51.470;9.894;2024-01-27T13:02:56;101168.13;;;29.05;28.60
25947;BME280;13745;51.470;9.894;2024-01-27T13:05:41;101159.13;;;28.92;28.19
25947;BME280;13745;51.470;9.894;2024-01-27T13:08:26;101145.25;;;28.57;28.64
25947;BME280;13745;51.470;9.894;2024-01-27T13:11:13;101145.84;;;28.32;28.84
25947;BME280;13745;51.470;9.894;2024-01-27T13:13:58;101147.13;;;28.09;29.14
25947;BME280;13745;51.470;9.894;2024-01-27T13:16:43;101147.78;;;27.98;29.34
25947;BME280;13745;51.470;9.894;2024-01-27T13:19:28;101142.69;;;27.94;29.37
25947;BME280;13745;51.470;9.894;2024-01-27T13:22:14;101143.03;;;27.88;29.05
25947;BME280;13745;51.470;9.894;2024-01-27T13:24:59;101145.00;;;27.53;29.73
25947;BME280;13745;51.470;9.894;2024-01-27T13:27:46;101150.31;;;27.53;30.18
25947;BME280;13745;51.470;9.894;2024-01-27T13:30:32;101149.69;;;27.81;29.83
25947;BME280;13745;51.470;9.894;2024-01-27T13:33:17;101138.16;;;28.26;29.71
25947;BME280;13745;51.470;9.894;2024-01-27T13:36:02;101136.25;;;28.28;29.73
25947;BME280;13745;51.470;9.894;2024-01-27T13:38:47;101128.41;;;28.41;29.46
25947;BME280;13745;51.470;9.894;2024-01-27T13:41:32;101137.34;;;28.70;28.95
25947;BME280;13745;51.470;9.894;2024-01-27T13:44:18;101136.47;;;28.09;29.03
25947;BME280;13745;51.470;9.894;2024-01-27T13:47:04;101145.88;;;27.20;29.42
25947;BME280;13745;51.470;9.894;2024-01-27T13:49:49;101144.59;;;26.08;30.42
25947;BME280;13745;51.470;9.894;2024-01-27T13:52:34;101145.03;;;25.23;30.88
25947;BME280;13745;51.470;9.894;2024-01-27T13:55:19;101140.75;;;24.80;31.43
25947;BME280;13745;51.470;9.894;2024-01-27T13:58:06;101139.09;;;24.36;31.64
25947;BME280;13745;51.470;9.894;2024-01-27T14:00:52;101147.53;;;23.57;31.94
25947;BME280;13745;51.470;9.894;2024-01-27T14:03:38;101154.16;;;22.47;33.27
25947;BME280;13745;51.470;9.894;2024-01-27T14:06:23;101158.72;;;21.58;34.26
25947;BME280;13745;51.470;9.894;2024-01-27T14:09:08;101151.81;;;20.92;34.97
25947;BME280;13745;51.470;9.894;2024-01-27T14:11:53;101147.06;;;20.38;35.75
25947;BME280;13745;51.470;9.894;2024-01-27T14:14:38;101158.84;;;19.87;36.29
25947;BME280;13745;51.470;9.894;2024-01-27T14:17:26;101163.81;;;19.16;37.14
25947;BME280;13745;51.470;9.894;2024-01-27T14:20:11;101160.66;;;18.49;37.96
25947;BME280;13745;51.470;9.894;2024-01-27T14:22:57;101168.53;;;17.94;38.73
25947;BME280;13745;51.470;9.894;2024-01-27T14:25:43;101166.50;;;17.50;39.07
25947;BME280;13745;51.470;9.894;2024-01-27T14:28:28;101171.59;;;16.88;39.91
25947;BME280;13745;51.470;9.894;2024-01-27T14:31:13;101169.44;;;16.32;40.38
25947;BME280;13745;51.470;9.894;2024-01-27T14:33:59;101174.09;;;15.90;41.31